createdAt,value
2017-11-15T00:00:19.566Z,81.06
2017-11-15T00:01:19.572Z,80.87
2017-11-15T00:02:19.587Z,81.06
2017-11-15T00:03:19.604Z,80.96
2017-11-15T00:04:19.611Z,80.96
2017-11-15T00:05:19.354Z,81.06
2017-11-15T00:06:19.367Z,80.96
2017-11-15T00:07:19.654Z,81.06
2017-11-15T00:08:19.395Z,81.16
2017-11-15T00:09:19.667Z,81.16
2017-11-15T00:10:19.419Z,81.06
2017-11-15T00:11:19.710Z,81.06
2017-11-15T00:12:19.440Z,81.06
2017-11-15T00:13:19.452Z,81.25
2017-11-15T00:14:19.478Z,81.35
2017-11-15T00:15:19.490Z,81.06
2017-11-15T00:16:19.765Z,81.16
2017-11-15T00:17:19.778Z,81.06
2017-11-15T00:18:19.521Z,81.25
2017-11-15T00:19:19.535Z,81.25
2017-11-15T00:20:19.812Z,81.16
2017-11-15T00:21:19.822Z,81.16
2017-11-15T00:22:19.842Z,81.25
2017-11-15T00:23:19.585Z,81.16
2017-11-15T00:24:19.870Z,80.96
2017-11-15T00:25:19.883Z,81.35
2017-11-15T00:26:19.620Z,81.16
2017-11-15T00:27:19.904Z,80.96
2017-11-15T00:28:19.650Z,80.96
2017-11-15T00:29:19.666Z,81.06
2017-11-15T00:30:19.952Z,81.16
2017-11-15T00:31:19.956Z,81.16
2017-11-15T00:32:19.989Z,81.25
2017-11-15T00:33:19.980Z,81.06
2017-11-15T00:34:19.994Z,81.16
2017-11-15T00:35:19.746Z,81.35
2017-11-15T00:36:19.750Z,81.44
2017-11-15T00:37:20.039Z,81.35
2017-11-15T00:38:20.050Z,81.44
2017-11-15T00:39:19.791Z,81.54
2017-11-15T00:40:19.799Z,81.63
2017-11-15T00:41:20.088Z,81.44
2017-11-15T00:42:19.828Z,81.73
2017-11-15T00:43:20.113Z,81.44
2017-11-15T00:44:20.133Z,81.06
2017-11-15T00:45:20.148Z,81.06
2017-11-15T00:46:19.880Z,81.44
2017-11-15T00:47:19.891Z,81.35
2017-11-15T00:48:20.173Z,81.73
2017-11-15T00:49:20.197Z,81.16
2017-11-15T00:50:20.202Z,81.54
2017-11-15T00:51:20.213Z,81.82
2017-11-15T00:52:20.230Z,81.44
2017-11-15T00:53:20.237Z,81.82
2017-11-15T00:54:19.984Z,81.92
2017-11-15T00:55:19.993Z,81.25
2017-11-15T00:56:20.300Z,81.25
2017-11-15T00:57:20.298Z,81.44
2017-11-15T00:58:20.304Z,81.25
2017-11-15T00:59:20.336Z,81.82
2017-11-15T01:00:20.062Z,81.82
2017-11-15T01:01:20.527Z,81.54
2017-11-15T01:02:20.366Z,81.35
2017-11-15T01:03:20.371Z,81.44
2017-11-15T01:04:20.382Z,81.35
2017-11-15T01:05:20.392Z,81.25
2017-11-15T01:06:20.407Z,81.25
2017-11-15T01:07:20.416Z,81.25
2017-11-15T01:08:20.161Z,81.82
2017-11-15T01:09:20.443Z,81.54
2017-11-15T01:10:20.463Z,81.44
2017-11-15T01:11:20.471Z,81.25
2017-11-15T01:12:20.212Z,81.54
2017-11-15T01:13:20.224Z,81.54
2017-11-15T01:14:20.241Z,82.01
2017-11-15T01:15:20.551Z,81.54
2017-11-15T01:16:20.543Z,81.44
2017-11-15T01:17:20.547Z,81.54
2017-11-15T01:18:20.293Z,81.44
2017-11-15T01:19:20.573Z,81.54
2017-11-15T01:20:20.593Z,81.44
2017-11-15T01:21:20.328Z,81.54
2017-11-15T01:22:20.619Z,81.54
2017-11-15T01:23:20.628Z,81.54
2017-11-15T01:24:20.646Z,81.44
2017-11-15T01:25:20.662Z,81.92
2017-11-15T01:26:20.394Z,81.82
2017-11-15T01:27:20.676Z,81.63
2017-11-15T01:28:20.687Z,81.82
2017-11-15T01:29:20.705Z,81.92
2017-11-15T01:30:20.720Z,81.92
2017-11-15T01:31:20.463Z,81.73
2017-11-15T01:32:20.477Z,81.82
2017-11-15T01:33:20.498Z,81.25
2017-11-15T01:34:20.504Z,81.82
2017-11-15T01:35:20.787Z,81.82
2017-11-15T01:36:20.532Z,81.63
2017-11-15T01:37:20.812Z,81.82
2017-11-15T01:38:20.828Z,81.82
2017-11-15T01:39:20.834Z,82.01
2017-11-15T01:40:20.849Z,81.92
2017-11-15T01:41:20.860Z,81.63
2017-11-15T01:42:20.603Z,81.63
2017-11-15T01:43:20.885Z,81.63
2017-11-15T01:44:20.632Z,81.73
2017-11-15T01:45:20.911Z,81.92
2017-11-15T01:46:20.924Z,81.92
2017-11-15T01:47:20.946Z,81.82
2017-11-15T01:48:20.953Z,82.01
2017-11-15T01:49:20.696Z,81.82
2017-11-15T01:50:20.976Z,81.92
2017-11-15T01:51:20.994Z,81.73
2017-11-15T01:52:21.006Z,82.2
2017-11-15T01:53:21.019Z,81.92
2017-11-15T01:54:21.028Z,81.54
2017-11-15T01:55:21.079Z,82.01
2017-11-15T01:56:21.056Z,81.63
2017-11-15T01:57:21.073Z,81.82
2017-11-15T01:58:21.081Z,81.54
2017-11-15T01:59:21.096Z,82.01
2017-11-15T02:00:21.103Z,81.82
2017-11-15T02:01:21.118Z,81.54
2017-11-15T02:02:21.139Z,81.54
2017-11-15T02:03:20.873Z,81.82
2017-11-15T02:04:20.884Z,81.73
2017-11-15T02:05:20.894Z,81.63
2017-11-15T02:06:21.177Z,81.73
2017-11-15T02:07:21.189Z,81.82
2017-11-15T02:08:21.206Z,81.54
2017-11-15T02:09:21.216Z,81.73
2017-11-15T02:10:21.280Z,81.82
2017-11-15T02:11:21.247Z,81.82
2017-11-15T02:12:20.986Z,81.73
2017-11-15T02:13:21.270Z,82.1
2017-11-15T02:14:21.283Z,81.63
2017-11-15T02:15:21.295Z,81.63
2017-11-15T02:16:21.312Z,81.54
2017-11-15T02:17:21.317Z,81.63
2017-11-15T02:18:21.354Z,81.73
2017-11-15T02:19:21.346Z,81.73
2017-11-15T02:20:21.364Z,81.82
2017-11-15T02:21:21.372Z,81.54
2017-11-15T02:22:21.384Z,81.73
2017-11-15T02:23:21.404Z,81.73
2017-11-15T02:24:21.409Z,81.63
2017-11-15T02:25:21.427Z,81.73
2017-11-15T02:26:21.170Z,81.82
2017-11-15T02:27:21.451Z,81.63
2017-11-15T02:28:21.469Z,81.73
2017-11-15T02:29:21.205Z,81.63
2017-11-15T02:30:21.512Z,81.63
2017-11-15T02:31:21.501Z,81.82
2017-11-15T02:32:21.242Z,81.73
2017-11-15T02:33:21.524Z,81.73
2017-11-15T02:34:21.543Z,81.73
2017-11-15T02:35:21.284Z,81.73
2017-11-15T02:36:21.589Z,81.82
2017-11-15T02:37:21.587Z,81.54
2017-11-15T02:38:21.354Z,81.92
2017-11-15T02:39:21.640Z,81.63
2017-11-15T02:40:21.623Z,81.63
2017-11-15T02:41:21.640Z,81.73
2017-11-15T02:42:21.823Z,81.73
2017-11-15T02:43:21.658Z,81.73
2017-11-15T02:44:21.711Z,81.73
2017-11-15T02:45:21.694Z,81.54
2017-11-15T02:46:21.426Z,81.44
2017-11-15T02:47:21.437Z,81.44
2017-11-15T02:48:21.727Z,81.63
2017-11-15T02:49:21.738Z,81.73
2017-11-15T02:50:21.752Z,81.73
2017-11-15T02:51:21.860Z,81.63
2017-11-15T02:52:21.784Z,81.54
2017-11-15T02:53:21.788Z,81.82
2017-11-15T02:54:21.526Z,81.73
2017-11-15T02:55:21.541Z,81.73
2017-11-15T02:56:21.826Z,81.82
2017-11-15T02:57:21.833Z,81.82
2017-11-15T02:58:21.581Z,81.73
2017-11-15T02:59:21.590Z,81.73
2017-11-15T03:00:21.881Z,81.73
2017-11-15T03:01:21.620Z,81.73
2017-11-15T03:02:21.902Z,81.73
2017-11-15T03:03:21.654Z,81.73
2017-11-15T03:04:21.930Z,81.82
2017-11-15T03:05:21.941Z,81.73
2017-11-15T03:06:21.949Z,81.73
2017-11-15T03:07:21.979Z,81.63
2017-11-15T03:08:21.705Z,81.73
2017-11-15T03:09:21.991Z,81.73
2017-11-15T03:10:22.002Z,81.82
2017-11-15T03:11:21.748Z,81.73
2017-11-15T03:12:22.057Z,81.54
2017-11-15T03:13:22.043Z,81.82
2017-11-15T03:14:21.783Z,81.73
2017-11-15T03:15:21.795Z,81.82
2017-11-15T03:16:22.079Z,81.73
2017-11-15T03:17:22.101Z,81.73
2017-11-15T03:18:22.106Z,81.73
2017-11-15T03:19:22.122Z,81.82
2017-11-15T03:20:22.133Z,81.73
2017-11-15T03:21:22.141Z,81.63
2017-11-15T03:22:22.166Z,81.73
2017-11-15T03:23:22.172Z,81.44
2017-11-15T03:24:22.182Z,81.44
2017-11-15T03:25:22.202Z,81.73
2017-11-15T03:26:22.216Z,81.82
2017-11-15T03:27:22.224Z,81.82
2017-11-15T03:28:21.964Z,81.54
2017-11-15T03:29:22.263Z,81.73
2017-11-15T03:30:22.262Z,81.73
2017-11-15T03:31:22.291Z,81.82
2017-11-15T03:32:22.285Z,81.73
2017-11-15T03:33:22.300Z,81.82
2017-11-15T03:34:22.321Z,82.29
2017-11-15T03:35:22.329Z,82.2
2017-11-15T03:36:22.346Z,81.63
2017-11-15T03:37:22.347Z,81.73
2017-11-15T03:38:22.362Z,81.82
2017-11-15T03:39:22.376Z,81.73
2017-11-15T03:40:22.393Z,81.82
2017-11-15T03:41:22.410Z,81.82
2017-11-15T03:42:22.417Z,81.73
2017-11-15T03:43:22.447Z,81.73
2017-11-15T03:44:22.454Z,81.54
2017-11-15T03:45:22.186Z,81.54
2017-11-15T03:46:22.479Z,81.73
2017-11-15T03:47:22.477Z,81.92
2017-11-15T03:48:22.490Z,81.73
2017-11-15T03:49:22.529Z,81.82
2017-11-15T03:50:22.525Z,81.82
2017-11-15T03:51:22.262Z,81.73
2017-11-15T03:52:22.549Z,81.73
2017-11-15T03:53:22.566Z,81.44
2017-11-15T03:54:22.299Z,81.73
2017-11-15T03:55:22.597Z,81.73
2017-11-15T03:56:22.371Z,81.63
2017-11-15T03:57:22.644Z,81.63
2017-11-15T03:58:22.618Z,81.63
2017-11-15T03:59:22.635Z,81.82
2017-11-15T04:00:22.646Z,81.92
2017-11-15T04:01:22.660Z,81.54
2017-11-15T04:02:22.408Z,81.54
2017-11-15T04:03:22.690Z,81.54
2017-11-15T04:04:22.720Z,81.54
2017-11-15T04:05:22.745Z,81.54
2017-11-15T04:06:22.722Z,82.1
2017-11-15T04:07:22.744Z,81.54
2017-11-15T04:08:22.480Z,81.82
2017-11-15T04:09:22.492Z,81.82
2017-11-15T04:10:22.862Z,81.73
2017-11-15T04:11:22.793Z,81.92
2017-11-15T04:12:22.804Z,81.82
2017-11-15T04:13:22.854Z,82.2
2017-11-15T04:14:22.826Z,81.73
2017-11-15T04:15:22.956Z,81.54
2017-11-15T04:16:22.854Z,81.82
2017-11-15T04:17:22.877Z,81.54
2017-11-15T04:18:22.610Z,81.54
2017-11-15T04:19:22.897Z,81.54
2017-11-15T04:20:22.906Z,81.92
2017-11-15T04:21:22.653Z,82.1
2017-11-15T04:22:22.934Z,81.54
2017-11-15T04:23:22.952Z,81.73
2017-11-15T04:24:22.969Z,81.54
2017-11-15T04:25:22.985Z,81.73
2017-11-15T04:26:22.989Z,81.92
2017-11-15T04:27:22.727Z,81.73
2017-11-15T04:28:23.008Z,81.92
2017-11-15T04:29:23.024Z,81.82
2017-11-15T04:30:22.764Z,81.73
2017-11-15T04:31:23.054Z,82.01
2017-11-15T04:32:22.794Z,81.82
2017-11-15T04:33:22.806Z,81.73
2017-11-15T04:34:23.092Z,81.54
2017-11-15T04:35:22.830Z,82.49
2017-11-15T04:36:23.119Z,82.29
2017-11-15T04:37:23.124Z,82.29
2017-11-15T04:38:23.137Z,81.54
2017-11-15T04:39:23.160Z,81.73
2017-11-15T04:40:23.165Z,81.73
2017-11-15T04:41:23.181Z,81.82
2017-11-15T04:42:23.191Z,82.1
2017-11-15T04:43:23.203Z,81.82
2017-11-15T04:44:23.232Z,81.73
2017-11-15T04:45:23.236Z,81.73
2017-11-15T04:46:22.980Z,81.73
2017-11-15T04:47:22.987Z,82.01
2017-11-15T04:48:23.273Z,82.58
2017-11-15T04:49:23.288Z,82.49
2017-11-15T04:50:23.298Z,82.1
2017-11-15T04:51:23.306Z,81.54
2017-11-15T04:52:23.320Z,81.63
2017-11-15T04:53:23.332Z,82.2
2017-11-15T04:54:23.353Z,81.63
2017-11-15T04:55:23.089Z,81.54
2017-11-15T04:56:23.371Z,82.49
2017-11-15T04:57:23.386Z,81.63
2017-11-15T04:58:23.405Z,81.54
2017-11-15T04:59:23.146Z,81.82
2017-11-15T05:00:23.441Z,81.63
2017-11-15T05:01:23.438Z,81.77
2017-11-15T05:02:23.462Z,81.82
2017-11-15T05:03:23.468Z,81.92
2017-11-15T05:04:23.210Z,81.82
2017-11-15T05:05:23.218Z,81.86
2017-11-15T05:06:23.502Z,81.82
2017-11-15T05:07:23.246Z,81.73
2017-11-15T05:08:23.527Z,81.73
2017-11-15T05:09:23.570Z,81.63
2017-11-15T05:10:23.284Z,82.39
2017-11-15T05:11:23.300Z,82.43
2017-11-15T05:12:23.584Z,81.82
2017-11-15T05:13:23.331Z,81.82
2017-11-15T05:14:23.336Z,81.82
2017-11-15T05:15:23.626Z,81.86
2017-11-15T05:16:23.636Z,81.44
2017-11-15T05:17:23.651Z,81.63
2017-11-15T05:18:23.655Z,81.73
2017-11-15T05:19:23.673Z,81.96
2017-11-15T05:20:23.415Z,81.92
2017-11-15T05:21:23.697Z,81.58
2017-11-15T05:22:23.443Z,81.73
2017-11-15T05:23:23.454Z,81.73
2017-11-15T05:24:23.736Z,81.73
2017-11-15T05:25:23.751Z,81.54
2017-11-15T05:26:23.760Z,81.73
2017-11-15T05:27:23.505Z,81.82
2017-11-15T05:28:23.791Z,81.67
2017-11-15T05:29:23.807Z,81.63
2017-11-15T05:30:23.822Z,81.86
2017-11-15T05:31:23.836Z,81.73
2017-11-15T05:32:23.847Z,81.82
2017-11-15T05:33:23.854Z,81.63
2017-11-15T05:34:23.865Z,81.73
2017-11-15T05:35:23.885Z,81.82
2017-11-15T05:36:23.623Z,81.73
2017-11-15T05:37:23.919Z,81.86
2017-11-15T05:38:23.919Z,81.63
2017-11-15T05:39:23.931Z,81.92
2017-11-15T05:40:23.943Z,81.73
2017-11-15T05:41:23.693Z,81.82
2017-11-15T05:42:23.982Z,81.82
2017-11-15T05:43:23.995Z,81.73
2017-11-15T05:44:23.731Z,81.58
2017-11-15T05:45:24.011Z,82.29
2017-11-15T05:46:24.026Z,81.82
2017-11-15T05:47:24.041Z,81.86
2017-11-15T05:48:23.779Z,81.73
2017-11-15T05:49:24.064Z,81.82
2017-11-15T05:50:24.078Z,81.58
2017-11-15T05:51:24.093Z,81.73
2017-11-15T05:52:23.833Z,81.73
2017-11-15T05:53:24.117Z,81.86
2017-11-15T05:54:24.133Z,82.24
2017-11-15T05:55:24.138Z,81.96
2017-11-15T05:56:24.154Z,81.73
2017-11-15T05:57:24.164Z,81.54
2017-11-15T05:58:24.192Z,81.58
2017-11-15T05:59:24.190Z,81.67
2017-11-15T06:00:24.228Z,81.63
2017-11-15T06:01:24.218Z,82.39
2017-11-15T06:02:23.965Z,82.2
2017-11-15T06:03:24.245Z,81.58
2017-11-15T06:04:23.989Z,81.86
2017-11-15T06:05:24.274Z,81.67
2017-11-15T06:06:24.014Z,82.2
2017-11-15T06:07:24.029Z,82.62
2017-11-15T06:08:24.309Z,82.34
2017-11-15T06:09:24.181Z,82.62
2017-11-15T06:10:24.129Z,81.67
2017-11-15T06:11:24.484Z,82.39
2017-11-15T06:12:24.093Z,81.58
2017-11-15T06:13:24.140Z,81.54
2017-11-15T06:14:24.440Z,81.82
2017-11-15T06:15:24.572Z,82.05
2017-11-15T06:16:24.503Z,81.82
2017-11-15T06:17:24.479Z,81.77
2017-11-15T06:18:24.593Z,81.77
2017-11-15T06:19:24.552Z,81.73
2017-11-15T06:20:24.256Z,81.82
2017-11-15T06:21:24.492Z,82.05
2017-11-15T06:22:24.677Z,81.96
2017-11-15T06:23:24.725Z,81.58
2017-11-15T06:24:24.636Z,82.43
2017-11-15T06:25:24.683Z,81.67
2017-11-15T06:26:24.590Z,81.67
2017-11-15T06:27:24.646Z,81.54
2017-11-15T06:28:24.604Z,81.86
2017-11-15T06:29:24.630Z,81.67
2017-11-15T06:30:24.391Z,81.86
2017-11-15T06:31:24.742Z,81.67
2017-11-15T06:32:24.776Z,81.77
2017-11-15T06:33:24.735Z,81.86
2017-11-15T06:34:24.732Z,81.58
2017-11-15T06:35:24.482Z,81.77
2017-11-15T06:36:24.692Z,81.67
2017-11-15T06:37:24.831Z,81.67
2017-11-15T06:38:24.712Z,81.58
2017-11-15T06:39:24.442Z,81.77
2017-11-15T06:40:24.733Z,81.54
2017-11-15T06:41:24.743Z,81.86
2017-11-15T06:42:24.485Z,81.77
2017-11-15T06:43:24.780Z,81.82
2017-11-15T06:44:24.840Z,81.73
2017-11-15T06:45:24.521Z,81.77
2017-11-15T06:46:24.813Z,81.77
2017-11-15T06:47:24.548Z,81.96
2017-11-15T06:48:24.560Z,81.77
2017-11-15T06:49:24.844Z,81.54
2017-11-15T06:50:24.856Z,81.77
2017-11-15T06:51:24.882Z,81.77
2017-11-15T06:52:24.887Z,81.82
2017-11-15T06:53:24.907Z,81.73
2017-11-15T06:54:24.910Z,81.67
2017-11-15T06:55:24.921Z,82.05
2017-11-15T06:56:24.946Z,81.96
2017-11-15T06:57:24.951Z,82.15
2017-11-15T06:58:24.968Z,81.86
2017-11-15T06:59:24.983Z,81.77
2017-11-15T07:00:24.986Z,81.86
2017-11-15T07:01:24.999Z,82.43
2017-11-15T07:02:25.021Z,81.86
2017-11-15T07:03:24.756Z,81.86
2017-11-15T07:04:24.776Z,81.96
2017-11-15T07:05:25.057Z,81.77
2017-11-15T07:06:24.797Z,81.58
2017-11-15T07:07:25.086Z,81.86
2017-11-15T07:08:25.089Z,81.77
2017-11-15T07:09:25.104Z,81.77
2017-11-15T07:10:24.852Z,81.58
2017-11-15T07:11:24.866Z,81.77
2017-11-15T07:12:24.875Z,81.77
2017-11-15T07:13:25.164Z,81.77
2017-11-15T07:14:24.904Z,82.05
2017-11-15T07:15:25.182Z,81.86
2017-11-15T07:16:25.214Z,81.86
2017-11-15T07:17:25.210Z,81.96
2017-11-15T07:18:25.223Z,82.05
2017-11-15T07:19:24.967Z,81.86
2017-11-15T07:20:25.251Z,81.86
2017-11-15T07:21:25.272Z,81.67
2017-11-15T07:22:25.285Z,81.48
2017-11-15T07:23:25.290Z,81.86
2017-11-15T07:24:25.309Z,81.86
2017-11-15T07:25:25.338Z,82.05
2017-11-15T07:26:25.338Z,81.48
2017-11-15T07:27:25.364Z,81.86
2017-11-15T07:28:25.099Z,82.05
2017-11-15T07:29:25.372Z,81.96
2017-11-15T07:30:25.380Z,81.58
2017-11-15T07:31:25.401Z,81.58
2017-11-15T07:32:25.137Z,81.67
2017-11-15T07:33:25.476Z,81.48
2017-11-15T07:34:25.462Z,81.48
2017-11-15T07:35:25.176Z,81.58
2017-11-15T07:36:25.460Z,81.48
2017-11-15T07:37:25.482Z,81.38
2017-11-15T07:38:25.489Z,81.48
2017-11-15T07:39:25.501Z,81.67
2017-11-15T07:40:25.243Z,81.29
2017-11-15T07:41:25.530Z,81.48
2017-11-15T07:42:25.538Z,81.29
2017-11-15T07:43:25.584Z,81.58
2017-11-15T07:44:25.566Z,81.67
2017-11-15T07:45:25.585Z,81.29
2017-11-15T07:46:25.606Z,81.29
2017-11-15T07:47:25.337Z,81.96
2017-11-15T07:48:25.620Z,81.86
2017-11-15T07:49:25.361Z,81.48
2017-11-15T07:50:25.656Z,81.58
2017-11-15T07:51:25.666Z,81.58
2017-11-15T07:52:25.404Z,81.38
2017-11-15T07:53:25.415Z,81.58
2017-11-15T07:54:25.696Z,81.2
2017-11-15T07:55:25.458Z,81.2
2017-11-15T07:56:25.456Z,81.29
2017-11-15T07:57:25.474Z,81.2
2017-11-15T07:58:25.753Z,81.77
2017-11-15T07:59:25.769Z,81.58
2017-11-15T08:00:25.508Z,81.77
2017-11-15T08:01:25.792Z,81.67
2017-11-15T08:02:25.811Z,81.48
2017-11-15T08:03:25.820Z,81.2
2017-11-15T08:04:25.832Z,81.38
2017-11-15T08:05:25.847Z,81.48
2017-11-15T08:06:25.858Z,81.29
2017-11-15T08:07:25.870Z,81.29
2017-11-15T08:08:25.887Z,81.58
2017-11-15T08:09:25.895Z,81.67
2017-11-15T08:10:25.640Z,81.67
2017-11-15T08:11:25.924Z,81.58
2017-11-15T08:12:25.989Z,81.58
2017-11-15T08:13:25.957Z,81.48
2017-11-15T08:14:25.970Z,81.48
2017-11-15T08:15:25.976Z,81.86
2017-11-15T08:16:25.998Z,81.38
2017-11-15T08:17:26.011Z,81.38
2017-11-15T08:18:26.022Z,81.38
2017-11-15T08:19:26.036Z,81.62
2017-11-15T08:20:26.049Z,81.52
2017-11-15T08:21:26.062Z,81.48
2017-11-15T08:22:26.076Z,81.29
2017-11-15T08:23:26.092Z,81.58
2017-11-15T08:24:26.104Z,81.43
2017-11-15T08:25:26.123Z,81.52
2017-11-15T08:26:26.127Z,81.24
2017-11-15T08:27:26.141Z,81.24
2017-11-15T08:28:26.158Z,81.14
2017-11-15T08:29:26.169Z,81.43
2017-11-15T08:30:26.175Z,81.43
2017-11-15T08:31:26.200Z,81.24
2017-11-15T08:32:25.935Z,81.05
2017-11-15T08:33:26.218Z,81.24
2017-11-15T08:34:26.238Z,81.14
2017-11-15T08:35:26.256Z,81.33
2017-11-15T08:36:26.255Z,81.14
2017-11-15T08:37:26.270Z,81.33
2017-11-15T08:38:26.019Z,81.43
2017-11-15T08:39:26.030Z,81.24
2017-11-15T08:40:26.045Z,81.33
2017-11-15T08:41:26.056Z,81.24
2017-11-15T08:42:26.340Z,81.24
2017-11-15T08:43:26.354Z,81.24
2017-11-15T08:44:26.367Z,81.24
2017-11-15T08:45:26.381Z,81.24
2017-11-15T08:46:26.137Z,81.43
2017-11-15T08:47:26.409Z,81.33
2017-11-15T08:48:26.421Z,81.33
2017-11-15T08:49:26.434Z,81.24
2017-11-15T08:50:26.178Z,81.24
2017-11-15T08:51:26.196Z,81.33
2017-11-15T08:52:26.203Z,81.05
2017-11-15T08:53:26.222Z,81.24
2017-11-15T08:54:26.501Z,81.24
2017-11-15T08:55:26.515Z,81.14
2017-11-15T08:56:26.264Z,81.14
2017-11-15T08:57:26.277Z,81.33
2017-11-15T08:58:26.287Z,81.33
2017-11-15T08:59:26.570Z,81.24
2017-11-15T09:00:26.584Z,81.14
2017-11-15T09:01:26.598Z,81.14
2017-11-15T09:02:26.621Z,81.05
2017-11-15T09:03:26.625Z,81.05
2017-11-15T09:04:26.368Z,81.24
2017-11-15T09:05:26.656Z,81.05
2017-11-15T09:06:26.400Z,81.24
2017-11-15T09:07:26.685Z,81.14
2017-11-15T09:08:26.719Z,81.33
2017-11-15T09:09:26.448Z,81.14
2017-11-15T09:10:26.724Z,81.24
2017-11-15T09:11:26.469Z,81.24
2017-11-15T09:12:26.481Z,81.24
2017-11-15T09:13:26.492Z,81.33
2017-11-15T09:14:26.788Z,81.24
2017-11-15T09:15:26.796Z,81.14
2017-11-15T09:16:26.806Z,81.24
2017-11-15T09:17:26.549Z,81.43
2017-11-15T09:18:26.834Z,81.33
2017-11-15T09:19:26.845Z,81.24
2017-11-15T09:20:26.857Z,81.24
2017-11-15T09:21:26.878Z,81.33
2017-11-15T09:22:26.884Z,81.14
2017-11-15T09:23:26.631Z,81.14
2017-11-15T09:24:26.646Z,81.43
2017-11-15T09:25:26.657Z,81.24
2017-11-15T09:26:26.945Z,81.14
2017-11-15T09:27:26.955Z,80.95
2017-11-15T09:28:26.975Z,81.24
2017-11-15T09:29:26.726Z,81.14
2017-11-15T09:30:26.995Z,81.05
2017-11-15T09:31:27.014Z,81.43
2017-11-15T09:32:27.026Z,81.14
2017-11-15T09:33:26.770Z,81.24
2017-11-15T09:34:27.064Z,81.43
2017-11-15T09:35:27.067Z,81.24
2017-11-15T09:36:26.818Z,81.43
2017-11-15T09:37:27.096Z,81.24
2017-11-15T09:38:26.839Z,81.43
2017-11-15T09:39:27.124Z,81.33
2017-11-15T09:40:27.135Z,81.33
2017-11-15T09:41:27.152Z,81.24
2017-11-15T09:42:27.169Z,81.33
2017-11-15T09:43:26.910Z,81.24
2017-11-15T09:44:27.200Z,81.14
2017-11-15T09:45:27.211Z,81.33
2017-11-15T09:46:27.223Z,81.24
2017-11-15T09:47:27.231Z,81.33
2017-11-15T09:48:27.248Z,81.14
2017-11-15T09:49:27.262Z,81.33
2017-11-15T09:50:27.278Z,81.24
2017-11-15T09:51:27.021Z,81.24
2017-11-15T09:52:27.308Z,81.24
2017-11-15T09:53:27.321Z,81.52
2017-11-15T09:54:27.337Z,81.33
2017-11-15T09:55:27.350Z,81.24
2017-11-15T09:56:27.356Z,81.33
2017-11-15T09:57:27.389Z,81.05
2017-11-15T09:58:27.387Z,81.24
2017-11-15T09:59:27.401Z,81.24
2017-11-15T10:00:27.419Z,81.14
2017-11-15T10:01:27.433Z,81.14
2017-11-15T10:02:27.456Z,81.24
2017-11-15T10:03:27.481Z,81.14
2017-11-15T10:04:27.475Z,81.24
2017-11-15T10:05:27.482Z,81.24
2017-11-15T10:06:27.230Z,81.43
2017-11-15T10:07:27.243Z,81.33
2017-11-15T10:08:27.544Z,81.43
2017-11-15T10:09:27.269Z,81.33
2017-11-15T10:10:27.283Z,81.28
2017-11-15T10:11:27.300Z,81.37
2017-11-15T10:12:27.587Z,81.28
2017-11-15T10:13:27.592Z,81.37
2017-11-15T10:14:27.614Z,81.18
2017-11-15T10:15:27.624Z,80.99
2017-11-15T10:16:27.638Z,80.8
2017-11-15T10:17:27.651Z,80.9
2017-11-15T10:18:27.661Z,80.99
2017-11-15T10:19:27.684Z,80.71
2017-11-15T10:20:27.724Z,80.99
2017-11-15T10:21:27.706Z,80.9
2017-11-15T10:22:27.719Z,80.71
2017-11-15T10:23:27.739Z,80.33
2017-11-15T10:24:27.750Z,80.42
2017-11-15T10:25:27.760Z,80.46
2017-11-15T10:26:27.780Z,79.89
2017-11-15T10:27:27.792Z,80.18
2017-11-15T10:28:27.813Z,80.65
2017-11-15T10:29:27.825Z,79.99
2017-11-15T10:30:27.834Z,79.89
2017-11-15T10:31:27.856Z,79.89
2017-11-15T10:32:27.862Z,80.18
2017-11-15T10:33:27.878Z,80.18
2017-11-15T10:34:27.895Z,80.36
2017-11-15T10:35:27.906Z,79.7
2017-11-15T10:36:27.930Z,79.6
2017-11-15T10:37:27.949Z,79.89
2017-11-15T10:38:27.947Z,79.6
2017-11-15T10:39:27.972Z,79.7
2017-11-15T10:40:27.707Z,79.22
2017-11-15T10:41:27.994Z,79.89
2017-11-15T10:42:28.037Z,79.51
2017-11-15T10:43:28.020Z,79.6
2017-11-15T10:44:28.035Z,79.22
2017-11-15T10:45:28.050Z,79.8
2017-11-15T10:46:28.069Z,79.8
2017-11-15T10:47:28.083Z,79.22
2017-11-15T10:48:28.099Z,78.94
2017-11-15T10:49:27.841Z,78.94
2017-11-15T10:50:28.130Z,78.98
2017-11-15T10:51:28.138Z,79.07
2017-11-15T10:52:28.173Z,79.27
2017-11-15T10:53:28.175Z,79.27
2017-11-15T10:54:27.912Z,79.17
2017-11-15T10:55:28.191Z,79.36
2017-11-15T10:56:28.210Z,78.98
2017-11-15T10:57:28.230Z,79.17
2017-11-15T10:58:28.245Z,79.27
2017-11-15T10:59:28.256Z,78.88
2017-11-15T11:00:28.271Z,79.17
2017-11-15T11:01:28.283Z,79.17
2017-11-15T11:02:28.297Z,78.69
2017-11-15T11:03:28.319Z,78.78
2017-11-15T11:04:28.062Z,79.17
2017-11-15T11:05:28.340Z,78.88
2017-11-15T11:06:28.357Z,78.78
2017-11-15T11:07:28.369Z,78.78
2017-11-15T11:08:28.387Z,78.22
2017-11-15T11:09:28.404Z,78.5
2017-11-15T11:10:28.413Z,78.31
2017-11-15T11:11:28.738Z,78.5
2017-11-15T11:12:28.448Z,78.59
2017-11-15T11:13:28.459Z,78.31
2017-11-15T11:14:28.204Z,78.5
2017-11-15T11:15:28.241Z,78.41
2017-11-15T11:16:28.515Z,78.41
2017-11-15T11:17:28.543Z,78.31
2017-11-15T11:18:28.270Z,78.5
2017-11-15T11:19:28.553Z,78.22
2017-11-15T11:20:28.604Z,78.22
2017-11-15T11:21:28.583Z,78.22
2017-11-15T11:22:28.595Z,78.22
2017-11-15T11:23:28.610Z,78.25
2017-11-15T11:24:28.356Z,77.83
2017-11-15T11:25:28.647Z,77.93
2017-11-15T11:26:28.386Z,78.06
2017-11-15T11:27:28.683Z,78.22
2017-11-15T11:28:28.414Z,78.31
2017-11-15T11:29:28.444Z,78.22
2017-11-15T11:30:28.722Z,78.03
2017-11-15T11:31:28.727Z,78.35
2017-11-15T11:32:28.751Z,77.49
2017-11-15T11:33:28.503Z,77.78
2017-11-15T11:34:28.783Z,78.06
2017-11-15T11:35:28.789Z,77.87
2017-11-15T11:36:28.816Z,77.2
2017-11-15T11:37:28.554Z,77.87
2017-11-15T11:38:28.843Z,77.3
2017-11-15T11:39:28.851Z,77.3
2017-11-15T11:40:28.877Z,77.2
2017-11-15T11:41:28.892Z,77.97
2017-11-15T11:42:28.898Z,77.59
2017-11-15T11:43:28.910Z,77.4
2017-11-15T11:44:28.933Z,77.59
2017-11-15T11:45:28.964Z,77.4
2017-11-15T11:46:28.977Z,77.97
2017-11-15T11:47:28.984Z,77.11
2017-11-15T11:48:28.989Z,77.4
2017-11-15T11:49:29.004Z,77.59
2017-11-15T11:50:29.023Z,76.64
2017-11-15T11:51:29.035Z,77.4
2017-11-15T11:52:29.051Z,77.2
2017-11-15T11:53:29.076Z,76.73
2017-11-15T11:54:29.084Z,77.01
2017-11-15T11:55:29.097Z,76.82
2017-11-15T11:56:28.847Z,76.64
2017-11-15T11:57:29.127Z,76.82
2017-11-15T11:58:29.146Z,76.92
2017-11-15T11:59:29.161Z,77.01
2017-11-15T12:00:29.172Z,76.92
2017-11-15T12:01:28.921Z,77.11
2017-11-15T12:02:28.934Z,77.11
2017-11-15T12:03:29.221Z,76.92
2017-11-15T12:04:29.235Z,76.82
2017-11-15T12:05:29.254Z,76.92
2017-11-15T12:06:29.276Z,76.44
2017-11-15T12:07:29.289Z,76.35
2017-11-15T12:08:29.302Z,76.82
2017-11-15T12:09:29.317Z,77.2
2017-11-15T12:10:29.332Z,76.54
2017-11-15T12:11:29.353Z,76.92
2017-11-15T12:12:29.364Z,76.82
2017-11-15T12:13:29.380Z,77.11
2017-11-15T12:14:29.121Z,76.54
2017-11-15T12:15:29.405Z,76.06
2017-11-15T12:16:29.424Z,77.11
2017-11-15T12:17:29.444Z,76.54
2017-11-15T12:18:29.461Z,77.11
2017-11-15T12:19:29.199Z,77.11
2017-11-15T12:20:29.482Z,77.11
2017-11-15T12:21:29.229Z,76.82
2017-11-15T12:22:29.517Z,77.2
2017-11-15T12:23:29.537Z,76.73
2017-11-15T12:24:29.593Z,76.92
2017-11-15T12:25:29.560Z,76.82
2017-11-15T12:26:29.577Z,76.82
2017-11-15T12:27:29.324Z,76.92
2017-11-15T12:28:29.607Z,76.82
2017-11-15T12:29:29.623Z,76.92
2017-11-15T12:30:29.641Z,77.01
2017-11-15T12:31:29.673Z,77.2
2017-11-15T12:32:29.678Z,77.01
2017-11-15T12:33:29.695Z,76.73
2017-11-15T12:34:29.427Z,77.11
2017-11-15T12:35:29.720Z,76.92
2017-11-15T12:36:29.733Z,77.01
2017-11-15T12:37:29.746Z,77.3
2017-11-15T12:38:29.765Z,76.54
2017-11-15T12:39:29.800Z,76.54
2017-11-15T12:40:29.791Z,76.54
2017-11-15T12:41:29.540Z,77.11
2017-11-15T12:42:29.825Z,76.73
2017-11-15T12:43:29.855Z,76.54
2017-11-15T12:44:29.855Z,77.2
2017-11-15T12:45:29.869Z,77.01
2017-11-15T12:46:29.891Z,76.82
2017-11-15T12:47:29.640Z,77.01
2017-11-15T12:48:29.915Z,76.73
2017-11-15T12:49:29.930Z,77.01
2017-11-15T12:50:29.954Z,76.64
2017-11-15T12:51:29.966Z,76.73
2017-11-15T12:52:29.982Z,77.4
2017-11-15T12:53:30.001Z,77.49
2017-11-15T12:54:30.021Z,77.59